sensor_id;sensor_type;location;lat;lon;timestamp;P1;durP1;ratioP1;P2;durP2;ratioP2
19929;SDS011;10127;47.780;9.606;2022-07-30T00:01:13;7.25;;;4.40;;
19929;SDS011;10127;47.780;9.606;2022-07-30T00:03:39;5.78;;;4.70;;
19929;SDS011;10127;47.780;9.606;2022-07-30T00:06:04;6.35;;;4.40;;
19929;SDS011;10127;47.780;9.606;2022-07-30T00:08:30;5.22;;;4.72;;
19929;SDS011;10127;47.780;9.606;2022-07-30T00:10:55;7.13;;;5.30;;
19929;SDS011;10127;47.780;9.606;2022-07-30T00:13:21;5.57;;;4.55;;
19929;SDS011;10127;47.780;9.606;2022-07-30T00:15:46;6.60;;;4.65;;
19929;SDS011;10127;47.780;9.606;2022-07-30T00:18:12;7.95;;;4.70;;
19929;SDS011;10127;47.780;9.606;2022-07-30T00:20:38;6.82;;;4.70;;
19929;SDS011;10127;47.780;9.606;2022-07-30T00:23:04;7.22;;;5.22;;
19929;SDS011;10127;47.780;9.606;2022-07-30T00:25:30;6.15;;;4.45;;
19929;SDS011;10127;47.780;9.606;2022-07-30T00:27:56;5.72;;;4.60;;
19929;SDS011;10127;47.780;9.606;2022-07-30T00:30:21;4.72;;;4.07;;
19929;SDS011;10127;47.780;9.606;2022-07-30T00:32:47;5.10;;;4.63;;
19929;SDS011;10127;47.780;9.606;2022-07-30T00:35:13;7.65;;;5.43;;
19929;SDS011;10127;47.780;9.606;2022-07-30T00:37:39;8.15;;;5.03;;
19929;SDS011;10127;47.780;9.606;2022-07-30T00:40:05;8.00;;;4.38;;
19929;SDS011;10127;47.780;9.606;2022-07-30T00:42:36;4.95;;;4.45;;
19929;SDS011;10127;47.780;9.606;2022-07-30T00:45:02;4.35;;;3.95;;
19929;SDS011;10127;47.780;9.606;2022-07-30T00:47:29;6.47;;;4.50;;
19929;SDS011;10127;47.780;9.606;2022-07-30T00:49:55;6.70;;;4.68;;
19929;SDS011;10127;47.780;9.606;2022-07-30T00:52:20;7.80;;;4.70;;
19929;SDS011;10127;47.780;9.606;2022-07-30T00:54:46;9.10;;;4.85;;
19929;SDS011;10127;47.780;9.606;2022-07-30T00:57:12;7.03;;;4.95;;
19929;SDS011;10127;47.780;9.606;2022-07-30T00:59:37;8.73;;;4.82;;
19929;SDS011;10127;47.780;9.606;2022-07-30T01:02:03;7.75;;;4.93;;
19929;SDS011;10127;47.780;9.606;2022-07-30T01:04:28;8.25;;;4.82;;
19929;SDS011;10127;47.780;9.606;2022-07-30T01:06:55;5.95;;;4.80;;
19929;SDS011;10127;47.780;9.606;2022-07-30T01:09:20;7.80;;;4.93;;
19929;SDS011;10127;47.780;9.606;2022-07-30T01:11:46;6.70;;;4.47;;
19929;SDS011;10127;47.780;9.606;2022-07-30T01:14:11;9.82;;;4.63;;
19929;SDS011;10127;47.780;9.606;2022-07-30T01:16:38;5.25;;;4.75;;
19929;SDS011;10127;47.780;9.606;2022-07-30T01:19:06;5.85;;;4.90;;
19929;SDS011;10127;47.780;9.606;2022-07-30T01:22:05;5.25;;;4.22;;
19929;SDS011;10127;47.780;9.606;2022-07-30T01:24:40;7.28;;;4.32;;
19929;SDS011;10127;47.780;9.606;2022-07-30T01:27:10;7.82;;;4.90;;
19929;SDS011;10127;47.780;9.606;2022-07-30T01:29:38;6.72;;;4.95;;
19929;SDS011;10127;47.780;9.606;2022-07-30T01:32:07;5.50;;;5.00;;
19929;SDS011;10127;47.780;9.606;2022-07-30T01:34:33;5.50;;;5.00;;
19929;SDS011;10127;47.780;9.606;2022-07-30T01:37:01;5.95;;;4.30;;
19929;SDS011;10127;47.780;9.606;2022-07-30T01:39:28;6.50;;;5.30;;
19929;SDS011;10127;47.780;9.606;2022-07-30T01:41:55;5.28;;;4.10;;
19929;SDS011;10127;47.780;9.606;2022-07-30T01:44:22;7.03;;;4.68;;
19929;SDS011;10127;47.780;9.606;2022-07-30T01:46:51;4.97;;;4.43;;
19929;SDS011;10127;47.780;9.606;2022-07-30T01:49:18;7.32;;;4.50;;
19929;SDS011;10127;47.780;9.606;2022-07-30T01:51:45;7.88;;;5.05;;
19929;SDS011;10127;47.780;9.606;2022-07-30T01:54:12;7.90;;;4.72;;
19929;SDS011;10127;47.780;9.606;2022-07-30T01:56:41;7.18;;;4.85;;
19929;SDS011;10127;47.780;9.606;2022-07-30T01:59:10;6.35;;;4.80;;
19929;SDS011;10127;47.780;9.606;2022-07-30T02:01:37;8.98;;;4.45;;
19929;SDS011;10127;47.780;9.606;2022-07-30T02:04:03;6.95;;;4.30;;
19929;SDS011;10127;47.780;9.606;2022-07-30T02:06:30;8.80;;;4.30;;
19929;SDS011;10127;47.780;9.606;2022-07-30T02:09:02;4.85;;;4.13;;
19929;SDS011;10127;47.780;9.606;2022-07-30T02:11:29;5.70;;;4.20;;
19929;SDS011;10127;47.780;9.606;2022-07-30T02:14:42;5.53;;;4.18;;
19929;SDS011;10127;47.780;9.606;2022-07-30T02:17:18;6.70;;;4.82;;
19929;SDS011;10127;47.780;9.606;2022-07-30T02:19:48;7.22;;;4.57;;
19929;SDS011;10127;47.780;9.606;2022-07-30T02:22:17;4.47;;;4.05;;
19929;SDS011;10127;47.780;9.606;2022-07-30T02:24:44;4.78;;;4.22;;
19929;SDS011;10127;47.780;9.606;2022-07-30T02:27:13;5.35;;;4.03;;
19929;SDS011;10127;47.780;9.606;2022-07-30T02:29:42;4.88;;;3.58;;
19929;SDS011;10127;47.780;9.606;2022-07-30T02:32:09;5.47;;;4.35;;
19929;SDS011;10127;47.780;9.606;2022-07-30T02:34:39;7.07;;;4.35;;
19929;SDS011;10127;47.780;9.606;2022-07-30T02:37:06;7.93;;;4.50;;
19929;SDS011;10127;47.780;9.606;2022-07-30T02:39:35;4.35;;;3.95;;
19929;SDS011;10127;47.780;9.606;2022-07-30T02:42:02;7.55;;;4.13;;
19929;SDS011;10127;47.780;9.606;2022-07-30T02:44:28;4.80;;;4.10;;
19929;SDS011;10127;47.780;9.606;2022-07-30T02:46:55;6.90;;;3.90;;
19929;SDS011;10127;47.780;9.606;2022-07-30T02:49:23;3.95;;;3.65;;
19929;SDS011;10127;47.780;9.606;2022-07-30T03:12:28;4.72;;;3.72;;
19929;SDS011;10127;47.780;9.606;2022-07-30T03:14:55;5.25;;;3.80;;
19929;SDS011;10127;47.780;9.606;2022-07-30T03:17:22;5.32;;;4.10;;
19929;SDS011;10127;47.780;9.606;2022-07-30T03:19:49;7.07;;;3.70;;
19929;SDS011;10127;47.780;9.606;2022-07-30T03:22:18;6.18;;;4.47;;
19929;SDS011;10127;47.780;9.606;2022-07-30T03:24:45;4.97;;;4.03;;
19929;SDS011;10127;47.780;9.606;2022-07-30T03:27:12;4.90;;;3.65;;
19929;SDS011;10127;47.780;9.606;2022-07-30T03:29:40;7.82;;;3.65;;
19929;SDS011;10127;47.780;9.606;2022-07-30T03:32:06;6.05;;;3.65;;
19929;SDS011;10127;47.780;9.606;2022-07-30T03:34:32;4.50;;;3.30;;
19929;SDS011;10127;47.780;9.606;2022-07-30T03:37:00;8.35;;;3.35;;
19929;SDS011;10127;47.780;9.606;2022-07-30T03:39:28;5.40;;;3.53;;
19929;SDS011;10127;47.780;9.606;2022-07-30T03:41:58;6.18;;;3.45;;
19929;SDS011;10127;47.780;9.606;2022-07-30T03:44:24;4.68;;;3.13;;
19929;SDS011;10127;47.780;9.606;2022-07-30T03:46:50;6.50;;;3.33;;
19929;SDS011;10127;47.780;9.606;2022-07-30T03:49:17;7.07;;;3.03;;
19929;SDS011;10127;47.780;9.606;2022-07-30T03:51:43;4.25;;;3.50;;
19929;SDS011;10127;47.780;9.606;2022-07-30T03:54:11;6.40;;;3.75;;
19929;SDS011;10127;47.780;9.606;2022-07-30T03:56:36;3.78;;;3.47;;
19929;SDS011;10127;47.780;9.606;2022-07-30T03:59:03;6.03;;;3.92;;
19929;SDS011;10127;47.780;9.606;2022-07-30T04:01:29;6.80;;;3.72;;
19929;SDS011;10127;47.780;9.606;2022-07-30T04:03:54;6.15;;;3.80;;
19929;SDS011;10127;47.780;9.606;2022-07-30T04:06:31;6.22;;;3.67;;
19929;SDS011;10127;47.780;9.606;2022-07-30T04:08:57;4.28;;;3.80;;
19929;SDS011;10127;47.780;9.606;2022-07-30T04:11:23;4.95;;;3.40;;
19929;SDS011;10127;47.780;9.606;2022-07-30T04:13:48;7.18;;;3.60;;
19929;SDS011;10127;47.780;9.606;2022-07-30T04:16:24;5.22;;;3.28;;
19929;SDS011;10127;47.780;9.606;2022-07-30T04:19:14;3.17;;;2.88;;
19929;SDS011;10127;47.780;9.606;2022-07-30T04:21:43;3.47;;;3.13;;
19929;SDS011;10127;47.780;9.606;2022-07-30T04:24:11;4.35;;;3.35;;
19929;SDS011;10127;47.780;9.606;2022-07-30T04:26:39;6.65;;;3.67;;
19929;SDS011;10127;47.780;9.606;2022-07-30T04:29:06;4.70;;;3.30;;
19929;SDS011;10127;47.780;9.606;2022-07-30T04:31:34;7.40;;;3.10;;
19929;SDS011;10127;47.780;9.606;2022-07-30T04:34:01;4.35;;;3.35;;
19929;SDS011;10127;47.780;9.606;2022-07-30T04:36:28;5.97;;;3.25;;
19929;SDS011;10127;47.780;9.606;2022-07-30T04:38:55;4.22;;;3.42;;
19929;SDS011;10127;47.780;9.606;2022-07-30T04:41:21;3.85;;;3.25;;
19929;SDS011;10127;47.780;9.606;2022-07-30T04:43:46;5.35;;;3.47;;
19929;SDS011;10127;47.780;9.606;2022-07-30T04:46:12;4.90;;;3.42;;
19929;SDS011;10127;47.780;9.606;2022-07-30T04:48:38;3.88;;;3.50;;
19929;SDS011;10127;47.780;9.606;2022-07-30T04:51:04;5.10;;;3.10;;
19929;SDS011;10127;47.780;9.606;2022-07-30T04:53:35;4.57;;;2.97;;
19929;SDS011;10127;47.780;9.606;2022-07-30T04:56:02;3.65;;;3.35;;
19929;SDS011;10127;47.780;9.606;2022-07-30T04:58:30;4.00;;;3.22;;
19929;SDS011;10127;47.780;9.606;2022-07-30T05:00:56;5.07;;;3.22;;
19929;SDS011;10127;47.780;9.606;2022-07-30T05:03:23;5.03;;;3.28;;
19929;SDS011;10127;47.780;9.606;2022-07-30T05:05:50;3.88;;;2.97;;
19929;SDS011;10127;47.780;9.606;2022-07-30T05:08:16;3.85;;;3.30;;
19929;SDS011;10127;47.780;9.606;2022-07-30T05:10:42;8.43;;;4.10;;
19929;SDS011;10127;47.780;9.606;2022-07-30T05:13:12;5.50;;;3.63;;
19929;SDS011;10127;47.780;9.606;2022-07-30T05:15:38;5.05;;;3.65;;
19929;SDS011;10127;47.780;9.606;2022-07-30T05:18:04;6.38;;;3.35;;
19929;SDS011;10127;47.780;9.606;2022-07-30T05:20:30;8.48;;;3.42;;
19929;SDS011;10127;47.780;9.606;2022-07-30T05:22:55;5.68;;;3.65;;
19929;SDS011;10127;47.780;9.606;2022-07-30T05:25:21;3.75;;;3.40;;
19929;SDS011;10127;47.780;9.606;2022-07-30T05:27:46;3.13;;;2.85;;
19929;SDS011;10127;47.780;9.606;2022-07-30T05:30:12;3.63;;;3.03;;
19929;SDS011;10127;47.780;9.606;2022-07-30T05:32:38;4.25;;;3.22;;
19929;SDS011;10127;47.780;9.606;2022-07-30T05:35:03;4.13;;;3.00;;
19929;SDS011;10127;47.780;9.606;2022-07-30T05:37:29;7.68;;;3.28;;
19929;SDS011;10127;47.780;9.606;2022-07-30T05:39:55;6.70;;;3.08;;
19929;SDS011;10127;47.780;9.606;2022-07-30T05:42:20;4.40;;;2.95;;
19929;SDS011;10127;47.780;9.606;2022-07-30T05:44:46;4.93;;;3.25;;
19929;SDS011;10127;47.780;9.606;2022-07-30T05:47:11;7.75;;;3.42;;
19929;SDS011;10127;47.780;9.606;2022-07-30T05:49:37;3.90;;;3.10;;
19929;SDS011;10127;47.780;9.606;2022-07-30T05:52:03;5.78;;;3.25;;
19929;SDS011;10127;47.780;9.606;2022-07-30T05:54:28;4.97;;;3.00;;
19929;SDS011;10127;47.780;9.606;2022-07-30T05:56:54;5.60;;;3.22;;
19929;SDS011;10127;47.780;9.606;2022-07-30T05:59:19;4.70;;;3.75;;
19929;SDS011;10127;47.780;9.606;2022-07-30T06:01:45;3.63;;;3.28;;
19929;SDS011;10127;47.780;9.606;2022-07-30T06:04:11;6.88;;;3.17;;
19929;SDS011;10127;47.780;9.606;2022-07-30T06:06:37;5.28;;;2.97;;
19929;SDS011;10127;47.780;9.606;2022-07-30T06:09:02;6.43;;;3.63;;
19929;SDS011;10127;47.780;9.606;2022-07-30T06:11:28;3.65;;;3.28;;
19929;SDS011;10127;47.780;9.606;2022-07-30T06:13:53;6.32;;;3.72;;
19929;SDS011;10127;47.780;9.606;2022-07-30T06:16:19;5.30;;;3.33;;
19929;SDS011;10127;47.780;9.606;2022-07-30T06:18:44;5.15;;;3.20;;
19929;SDS011;10127;47.780;9.606;2022-07-30T06:21:10;6.85;;;3.85;;
19929;SDS011;10127;47.780;9.606;2022-07-30T06:23:35;6.15;;;3.50;;
19929;SDS011;10127;47.780;9.606;2022-07-30T06:26:01;4.18;;;3.47;;
19929;SDS011;10127;47.780;9.606;2022-07-30T06:28:26;7.25;;;3.80;;
19929;SDS011;10127;47.780;9.606;2022-07-30T06:30:52;7.50;;;4.25;;
19929;SDS011;10127;47.780;9.606;2022-07-30T06:33:17;5.60;;;3.92;;
19929;SDS011;10127;47.780;9.606;2022-07-30T06:35:43;8.10;;;3.55;;
19929;SDS011;10127;47.780;9.606;2022-07-30T06:38:09;7.25;;;3.40;;
19929;SDS011;10127;47.780;9.606;2022-07-30T06:40:34;6.18;;;3.22;;
19929;SDS011;10127;47.780;9.606;2022-07-30T06:43:00;3.88;;;3.47;;
19929;SDS011;10127;47.780;9.606;2022-07-30T06:45:28;5.30;;;3.40;;
19929;SDS011;10127;47.780;9.606;2022-07-30T06:47:57;4.63;;;3.50;;
19929;SDS011;10127;47.780;9.606;2022-07-30T06:50:23;8.52;;;3.95;;
19929;SDS011;10127;47.780;9.606;2022-07-30T06:52:49;8.73;;;4.03;;
19929;SDS011;10127;47.780;9.606;2022-07-30T06:55:14;5.50;;;3.78;;
19929;SDS011;10127;47.780;9.606;2022-07-30T06:57:40;5.60;;;4.18;;
19929;SDS011;10127;47.780;9.606;2022-07-30T07:00:06;3.97;;;3.40;;
19929;SDS011;10127;47.780;9.606;2022-07-30T07:02:32;5.78;;;3.60;;
19929;SDS011;10127;47.780;9.606;2022-07-30T07:04:58;4.22;;;3.75;;
19929;SDS011;10127;47.780;9.606;2022-07-30T07:07:23;10.48;;;4.55;;
19929;SDS011;10127;47.780;9.606;2022-07-30T07:09:49;6.53;;;4.47;;
19929;SDS011;10127;47.780;9.606;2022-07-30T07:12:15;4.32;;;3.10;;
19929;SDS011;10127;47.780;9.606;2022-07-30T07:14:40;5.10;;;3.92;;
19929;SDS011;10127;47.780;9.606;2022-07-30T07:17:06;4.78;;;3.72;;
19929;SDS011;10127;47.780;9.606;2022-07-30T07:19:32;5.40;;;4.03;;
19929;SDS011;10127;47.780;9.606;2022-07-30T07:21:57;4.18;;;3.42;;
19929;SDS011;10127;47.780;9.606;2022-07-30T07:24:23;4.47;;;3.65;;
19929;SDS011;10127;47.780;9.606;2022-07-30T07:26:48;3.85;;;3.55;;
19929;SDS011;10127;47.780;9.606;2022-07-30T07:29:14;6.05;;;4.00;;
19929;SDS011;10127;47.780;9.606;2022-07-30T07:31:40;6.13;;;3.75;;
19929;SDS011;10127;47.780;9.606;2022-07-30T07:34:06;5.15;;;3.88;;
19929;SDS011;10127;47.780;9.606;2022-07-30T07:36:31;4.93;;;3.63;;
19929;SDS011;10127;47.780;9.606;2022-07-30T07:38:59;6.55;;;3.85;;
19929;SDS011;10127;47.780;9.606;2022-07-30T07:41:25;7.78;;;4.20;;
19929;SDS011;10127;47.780;9.606;2022-07-30T07:43:50;8.23;;;4.40;;
19929;SDS011;10127;47.780;9.606;2022-07-30T07:46:16;7.25;;;4.03;;
19929;SDS011;10127;47.780;9.606;2022-07-30T07:48:42;4.55;;;3.78;;
19929;SDS011;10127;47.780;9.606;2022-07-30T07:51:08;8.43;;;4.53;;
19929;SDS011;10127;47.780;9.606;2022-07-30T07:53:34;6.03;;;4.03;;
19929;SDS011;10127;47.780;9.606;2022-07-30T07:56:01;8.32;;;3.45;;
19929;SDS011;10127;47.780;9.606;2022-07-30T07:58:27;4.28;;;3.88;;
19929;SDS011;10127;47.780;9.606;2022-07-30T08:00:52;7.28;;;4.03;;
19929;SDS011;10127;47.780;9.606;2022-07-30T08:03:18;6.07;;;3.58;;
19929;SDS011;10127;47.780;9.606;2022-07-30T08:05:44;6.88;;;3.78;;
19929;SDS011;10127;47.780;9.606;2022-07-30T08:08:11;8.43;;;4.25;;
19929;SDS011;10127;47.780;9.606;2022-07-30T08:10:36;5.20;;;3.28;;
19929;SDS011;10127;47.780;9.606;2022-07-30T08:13:02;4.88;;;3.50;;
19929;SDS011;10127;47.780;9.606;2022-07-30T08:15:29;6.63;;;3.83;;
19929;SDS011;10127;47.780;9.606;2022-07-30T08:17:55;5.40;;;3.47;;
19929;SDS011;10127;47.780;9.606;2022-07-30T08:20:21;4.60;;;3.55;;
19929;SDS011;10127;47.780;9.606;2022-07-30T08:22:48;5.50;;;3.85;;
19929;SDS011;10127;47.780;9.606;2022-07-30T08:25:14;4.57;;;3.65;;
19929;SDS011;10127;47.780;9.606;2022-07-30T08:27:40;7.50;;;3.20;;
19929;SDS011;10127;47.780;9.606;2022-07-30T08:30:09;5.50;;;3.28;;
19929;SDS011;10127;47.780;9.606;2022-07-30T08:32:35;5.72;;;3.15;;
19929;SDS011;10127;47.780;9.606;2022-07-30T08:35:02;6.43;;;3.40;;
19929;SDS011;10127;47.780;9.606;2022-07-30T08:37:28;7.15;;;3.53;;
19929;SDS011;10127;47.780;9.606;2022-07-30T08:39:54;5.07;;;3.80;;
19929;SDS011;10127;47.780;9.606;2022-07-30T08:42:20;4.72;;;3.05;;
19929;SDS011;10127;47.780;9.606;2022-07-30T08:44:47;4.63;;;3.05;;
19929;SDS011;10127;47.780;9.606;2022-07-30T08:47:16;5.38;;;3.30;;
19929;SDS011;10127;47.780;9.606;2022-07-30T08:49:43;5.75;;;3.22;;
19929;SDS011;10127;47.780;9.606;2022-07-30T08:52:10;4.72;;;3.42;;
19929;SDS011;10127;47.780;9.606;2022-07-30T08:54:37;9.15;;;3.53;;
19929;SDS011;10127;47.780;9.606;2022-07-30T08:57:04;6.00;;;3.13;;
19929;SDS011;10127;47.780;9.606;2022-07-30T08:59:30;4.35;;;2.67;;
19929;SDS011;10127;47.780;9.606;2022-07-30T09:01:57;6.15;;;2.67;;
19929;SDS011;10127;47.780;9.606;2022-07-30T09:04:22;7.03;;;2.92;;
19929;SDS011;10127;47.780;9.606;2022-07-30T09:06:48;5.72;;;2.83;;
19929;SDS011;10127;47.780;9.606;2022-07-30T09:09:14;6.22;;;2.80;;
19929;SDS011;10127;47.780;9.606;2022-07-30T09:11:40;3.55;;;2.38;;
19929;SDS011;10127;47.780;9.606;2022-07-30T09:14:09;7.18;;;2.47;;
19929;SDS011;10127;47.780;9.606;2022-07-30T09:16:36;5.28;;;2.88;;
19929;SDS011;10127;47.780;9.606;2022-07-30T09:21:37;8.52;;;2.70;;
19929;SDS011;10127;47.780;9.606;2022-07-30T09:24:03;4.60;;;2.22;;
19929;SDS011;10127;47.780;9.606;2022-07-30T09:26:31;3.17;;;2.20;;
19929;SDS011;10127;47.780;9.606;2022-07-30T09:29:16;3.45;;;2.03;;
19929;SDS011;10127;47.780;9.606;2022-07-30T09:31:53;4.68;;;2.20;;
19929;SDS011;10127;47.780;9.606;2022-07-30T09:34:22;6.70;;;2.42;;
19929;SDS011;10127;47.780;9.606;2022-07-30T09:36:48;6.03;;;2.42;;
19929;SDS011;10127;47.780;9.606;2022-07-30T09:39:14;4.05;;;1.75;;
19929;SDS011;10127;47.780;9.606;2022-07-30T09:41:52;4.38;;;2.08;;
19929;SDS011;10127;47.780;9.606;2022-07-30T09:44:25;4.35;;;1.98;;
19929;SDS011;10127;47.780;9.606;2022-07-30T09:46:51;5.90;;;2.20;;
19929;SDS011;10127;47.780;9.606;2022-07-30T09:49:21;6.82;;;2.28;;
19929;SDS011;10127;47.780;9.606;2022-07-30T09:51:51;5.43;;;2.33;;
19929;SDS011;10127;47.780;9.606;2022-07-30T09:54:18;6.57;;;2.40;;
19929;SDS011;10127;47.780;9.606;2022-07-30T09:56:44;7.05;;;2.38;;
19929;SDS011;10127;47.780;9.606;2022-07-30T10:01:51;4.90;;;2.08;;
19929;SDS011;10127;47.780;9.606;2022-07-30T10:06:53;2.55;;;2.08;;
19929;SDS011;10127;47.780;9.606;2022-07-30T10:09:23;6.10;;;2.47;;
19929;SDS011;10127;47.780;9.606;2022-07-30T10:11:51;5.65;;;2.20;;
19929;SDS011;10127;47.780;9.606;2022-07-30T10:14:19;3.90;;;2.20;;
19929;SDS011;10127;47.780;9.606;2022-07-30T10:16:47;3.83;;;1.92;;
19929;SDS011;10127;47.780;9.606;2022-07-30T10:19:14;2.80;;;2.05;;
19929;SDS011;10127;47.780;9.606;2022-07-30T10:21:41;3.47;;;1.85;;
19929;SDS011;10127;47.780;9.606;2022-07-30T10:24:08;3.58;;;2.00;;
19929;SDS011;10127;47.780;9.606;2022-07-30T10:26:34;8.70;;;2.40;;
19929;SDS011;10127;47.780;9.606;2022-07-30T10:29:00;7.72;;;2.05;;
19929;SDS011;10127;47.780;9.606;2022-07-30T10:31:27;3.40;;;1.77;;
19929;SDS011;10127;47.780;9.606;2022-07-30T10:33:53;6.65;;;2.00;;
19929;SDS011;10127;47.780;9.606;2022-07-30T10:36:20;2.92;;;1.90;;
19929;SDS011;10127;47.780;9.606;2022-07-30T10:38:47;4.75;;;1.60;;
19929;SDS011;10127;47.780;9.606;2022-07-30T10:47:11;2.97;;;1.60;;
19929;SDS011;10127;47.780;9.606;2022-07-30T10:49:26;4.68;;;1.70;;
19929;SDS011;10127;47.780;9.606;2022-07-30T10:51:51;2.92;;;1.50;;
19929;SDS011;10127;47.780;9.606;2022-07-30T11:02:19;4.22;;;1.75;;
19929;SDS011;10127;47.780;9.606;2022-07-30T11:04:46;4.15;;;1.48;;
19929;SDS011;10127;47.780;9.606;2022-07-30T11:09:48;6.65;;;1.65;;
19929;SDS011;10127;47.780;9.606;2022-07-30T11:12:14;7.13;;;1.60;;
19929;SDS011;10127;47.780;9.606;2022-07-30T11:15:06;3.83;;;1.40;;
19929;SDS011;10127;47.780;9.606;2022-07-30T11:20:25;3.47;;;1.23;;
19929;SDS011;10127;47.780;9.606;2022-07-30T11:22:51;1.95;;;1.48;;
19929;SDS011;10127;47.780;9.606;2022-07-30T11:27:47;2.60;;;1.60;;
19929;SDS011;10127;47.780;9.606;2022-07-30T11:32:48;3.45;;;1.33;;
19929;SDS011;10127;47.780;9.606;2022-07-30T11:35:33;6.20;;;1.65;;
19929;SDS011;10127;47.780;9.606;2022-07-30T11:38:03;5.30;;;1.50;;
19929;SDS011;10127;47.780;9.606;2022-07-30T11:41:13;6.68;;;1.63;;
19929;SDS011;10127;47.780;9.606;2022-07-30T11:43:25;2.63;;;1.55;;
19929;SDS011;10127;47.780;9.606;2022-07-30T11:46:05;5.10;;;1.80;;
19929;SDS011;10127;47.780;9.606;2022-07-30T11:48:31;2.80;;;1.83;;
19929;SDS011;10127;47.780;9.606;2022-07-30T11:50:57;8.35;;;1.40;;
19929;SDS011;10127;47.780;9.606;2022-07-30T11:53:23;4.68;;;1.75;;
19929;SDS011;10127;47.780;9.606;2022-07-30T11:55:49;4.47;;;1.63;;
19929;SDS011;10127;47.780;9.606;2022-07-30T12:00:57;4.43;;;1.80;;
19929;SDS011;10127;47.780;9.606;2022-07-30T12:03:28;2.40;;;1.40;;
19929;SDS011;10127;47.780;9.606;2022-07-30T12:06:04;3.08;;;1.50;;
19929;SDS011;10127;47.780;9.606;2022-07-30T12:08:43;3.47;;;1.65;;
19929;SDS011;10127;47.780;9.606;2022-07-30T12:11:10;6.45;;;2.00;;
19929;SDS011;10127;47.780;9.606;2022-07-30T12:13:37;2.97;;;1.80;;
19929;SDS011;10127;47.780;9.606;2022-07-30T12:16:10;6.28;;;2.22;;
19929;SDS011;10127;47.780;9.606;2022-07-30T12:18:36;5.13;;;2.15;;
19929;SDS011;10127;47.780;9.606;2022-07-30T12:21:07;4.53;;;2.13;;
19929;SDS011;10127;47.780;9.606;2022-07-30T12:23:37;5.18;;;2.10;;
19929;SDS011;10127;47.780;9.606;2022-07-30T12:26:03;2.70;;;1.75;;
19929;SDS011;10127;47.780;9.606;2022-07-30T12:28:32;4.35;;;1.67;;
19929;SDS011;10127;47.780;9.606;2022-07-30T12:30:59;4.13;;;1.48;;
19929;SDS011;10127;47.780;9.606;2022-07-30T12:33:28;2.75;;;1.35;;
19929;SDS011;10127;47.780;9.606;2022-07-30T12:35:55;5.75;;;1.67;;
19929;SDS011;10127;47.780;9.606;2022-07-30T12:38:22;3.63;;;1.73;;
19929;SDS011;10127;47.780;9.606;2022-07-30T12:40:49;5.40;;;1.70;;
19929;SDS011;10127;47.780;9.606;2022-07-30T12:46:09;2.63;;;1.50;;
19929;SDS011;10127;47.780;9.606;2022-07-30T12:48:36;3.88;;;1.35;;
19929;SDS011;10127;47.780;9.606;2022-07-30T12:53:30;2.28;;;1.50;;
19929;SDS011;10127;47.780;9.606;2022-07-30T12:56:08;2.00;;;1.77;;
19929;SDS011;10127;47.780;9.606;2022-07-30T12:58:38;3.38;;;1.77;;
19929;SDS011;10127;47.780;9.606;2022-07-30T13:01:04;2.88;;;1.60;;
19929;SDS011;10127;47.780;9.606;2022-07-30T13:03:30;3.50;;;1.88;;
19929;SDS011;10127;47.780;9.606;2022-07-30T13:06:15;4.53;;;1.55;;
19929;SDS011;10127;47.780;9.606;2022-07-30T13:08:46;2.70;;;1.50;;
19929;SDS011;10127;47.780;9.606;2022-07-30T13:11:23;3.28;;;1.35;;
19929;SDS011;10127;47.780;9.606;2022-07-30T13:13:50;3.05;;;1.65;;
19929;SDS011;10127;47.780;9.606;2022-07-30T13:16:17;2.17;;;1.15;;
19929;SDS011;10127;47.780;9.606;2022-07-30T13:18:43;5.28;;;1.95;;
19929;SDS011;10127;47.780;9.606;2022-07-30T13:21:09;6.38;;;2.10;;
19929;SDS011;10127;47.780;9.606;2022-07-30T13:23:35;3.85;;;1.95;;
19929;SDS011;10127;47.780;9.606;2022-07-30T13:26:02;10.50;;;3.20;;
19929;SDS011;10127;47.780;9.606;2022-07-30T13:28:30;10.70;;;2.70;;
19929;SDS011;10127;47.780;9.606;2022-07-30T13:30:57;6.13;;;2.63;;
19929;SDS011;10127;47.780;9.606;2022-07-30T13:33:22;7.35;;;2.33;;
19929;SDS011;10127;47.780;9.606;2022-07-30T13:35:48;8.05;;;2.88;;
19929;SDS011;10127;47.780;9.606;2022-07-30T13:38:14;9.02;;;3.40;;
19929;SDS011;10127;47.780;9.606;2022-07-30T13:40:39;7.20;;;4.07;;
19929;SDS011;10127;47.780;9.606;2022-07-30T13:43:05;9.07;;;3.15;;
19929;SDS011;10127;47.780;9.606;2022-07-30T13:45:31;6.85;;;2.90;;
19929;SDS011;10127;47.780;9.606;2022-07-30T13:47:58;3.63;;;2.20;;
19929;SDS011;10127;47.780;9.606;2022-07-30T13:50:23;5.70;;;2.85;;
19929;SDS011;10127;47.780;9.606;2022-07-30T13:52:49;6.00;;;2.55;;
19929;SDS011;10127;47.780;9.606;2022-07-30T13:55:14;4.28;;;2.38;;
19929;SDS011;10127;47.780;9.606;2022-07-30T13:57:40;4.70;;;2.03;;
19929;SDS011;10127;47.780;9.606;2022-07-30T14:00:07;6.60;;;2.35;;
19929;SDS011;10127;47.780;9.606;2022-07-30T14:02:33;5.38;;;2.45;;
19929;SDS011;10127;47.780;9.606;2022-07-30T14:04:59;3.33;;;2.13;;
19929;SDS011;10127;47.780;9.606;2022-07-30T14:07:24;6.43;;;2.13;;
19929;SDS011;10127;47.780;9.606;2022-07-30T14:09:50;7.85;;;2.70;;
19929;SDS011;10127;47.780;9.606;2022-07-30T14:12:16;3.22;;;2.38;;
19929;SDS011;10127;47.780;9.606;2022-07-30T14:14:41;4.18;;;2.10;;
19929;SDS011;10127;47.780;9.606;2022-07-30T14:17:07;6.57;;;2.90;;
19929;SDS011;10127;47.780;9.606;2022-07-30T14:19:33;3.90;;;2.20;;
19929;SDS011;10127;47.780;9.606;2022-07-30T14:21:58;4.25;;;2.05;;
19929;SDS011;10127;47.780;9.606;2022-07-30T14:24:24;4.18;;;2.08;;
19929;SDS011;10127;47.780;9.606;2022-07-30T14:26:49;3.60;;;1.88;;
19929;SDS011;10127;47.780;9.606;2022-07-30T14:29:15;2.45;;;1.63;;
19929;SDS011;10127;47.780;9.606;2022-07-30T14:31:41;2.88;;;1.80;;
19929;SDS011;10127;47.780;9.606;2022-07-30T14:34:07;3.22;;;2.08;;
19929;SDS011;10127;47.780;9.606;2022-07-30T14:36:34;4.05;;;1.90;;
19929;SDS011;10127;47.780;9.606;2022-07-30T14:39:01;2.45;;;1.48;;
19929;SDS011;10127;47.780;9.606;2022-07-30T14:41:28;5.80;;;1.90;;
19929;SDS011;10127;47.780;9.606;2022-07-30T14:43:54;2.38;;;1.30;;
19929;SDS011;10127;47.780;9.606;2022-07-30T14:46:20;1.85;;;1.30;;
19929;SDS011;10127;47.780;9.606;2022-07-30T14:48:46;2.85;;;1.27;;
19929;SDS011;10127;47.780;9.606;2022-07-30T14:51:12;2.60;;;1.45;;
19929;SDS011;10127;47.780;9.606;2022-07-30T14:53:38;5.57;;;1.45;;
19929;SDS011;10127;47.780;9.606;2022-07-30T14:56:04;3.17;;;1.15;;
19929;SDS011;10127;47.780;9.606;2022-07-30T14:58:30;3.17;;;1.52;;
19929;SDS011;10127;47.780;9.606;2022-07-30T15:00:55;2.13;;;1.27;;
19929;SDS011;10127;47.780;9.606;2022-07-30T15:03:21;3.58;;;1.20;;
19929;SDS011;10127;47.780;9.606;2022-07-30T15:05:46;2.35;;;1.20;;
19929;SDS011;10127;47.780;9.606;2022-07-30T15:08:12;3.83;;;0.88;;
19929;SDS011;10127;47.780;9.606;2022-07-30T15:10:40;2.08;;;1.30;;
19929;SDS011;10127;47.780;9.606;2022-07-30T15:13:06;3.25;;;1.40;;
19929;SDS011;10127;47.780;9.606;2022-07-30T15:15:32;3.13;;;1.35;;
19929;SDS011;10127;47.780;9.606;2022-07-30T15:17:59;2.10;;;1.45;;
19929;SDS011;10127;47.780;9.606;2022-07-30T15:20:24;4.20;;;1.20;;
19929;SDS011;10127;47.780;9.606;2022-07-30T15:22:50;3.25;;;1.55;;
19929;SDS011;10127;47.780;9.606;2022-07-30T15:25:16;2.28;;;1.25;;
19929;SDS011;10127;47.780;9.606;2022-07-30T15:27:41;5.10;;;1.35;;
19929;SDS011;10127;47.780;9.606;2022-07-30T15:30:07;3.50;;;1.17;;
19929;SDS011;10127;47.780;9.606;2022-07-30T15:32:33;3.83;;;1.70;;
19929;SDS011;10127;47.780;9.606;2022-07-30T15:34:59;2.85;;;1.30;;
19929;SDS011;10127;47.780;9.606;2022-07-30T15:37:24;2.97;;;1.60;;
19929;SDS011;10127;47.780;9.606;2022-07-30T15:39:50;1.75;;;1.33;;
19929;SDS011;10127;47.780;9.606;2022-07-30T15:42:16;3.08;;;1.10;;
19929;SDS011;10127;47.780;9.606;2022-07-30T15:44:41;4.00;;;1.48;;
19929;SDS011;10127;47.780;9.606;2022-07-30T15:47:07;2.88;;;1.40;;
19929;SDS011;10127;47.780;9.606;2022-07-30T15:49:32;2.95;;;1.40;;